createdAt,value
2022-11-30T00:01:21.537Z,101395.56
2022-11-30T00:03:49.607Z,101396.28
2022-11-30T00:06:23.252Z,101400.56
2022-11-30T00:08:55.575Z,101401.38
2022-11-30T00:11:24.985Z,101410.72
2022-11-30T00:13:52.127Z,101407.22
2022-11-30T00:16:19.601Z,101401.25
2022-11-30T00:18:47.143Z,101404.59
2022-11-30T00:21:15.154Z,101409.69
2022-11-30T00:23:44.655Z,101407.94
2022-11-30T00:26:14.642Z,101410.78
2022-11-30T00:28:44.043Z,101416.69
2022-11-30T00:31:14.299Z,101406.34
2022-11-30T00:33:42.113Z,101411.44
2022-11-30T00:36:13.747Z,101420.19
2022-11-30T00:38:41.022Z,101424.38
2022-11-30T00:41:08.199Z,101416.53
2022-11-30T00:43:36.074Z,101416.69
2022-11-30T00:46:03.582Z,101422.66
2022-11-30T00:48:31.066Z,101415.69
2022-11-30T00:50:58.641Z,101426.88
2022-11-30T00:53:25.925Z,101413.03
2022-11-30T00:55:53.546Z,101420.91
2022-11-30T00:58:20.789Z,101424.31
2022-11-30T01:00:48.155Z,101428.59
2022-11-30T01:03:15.573Z,101414.63
2022-11-30T01:05:46.326Z,101424.06
2022-11-30T01:08:14.116Z,101430.06
2022-11-30T01:10:43.311Z,101425.91
2022-11-30T01:13:13.082Z,101431.97
2022-11-30T01:15:43.875Z,101435.34
2022-11-30T01:18:11.942Z,101442.03
2022-11-30T01:20:43.644Z,101445.53
2022-11-30T01:23:11.417Z,101432.03
2022-11-30T01:25:38.744Z,101433.44
2022-11-30T01:28:06.344Z,101430.66
2022-11-30T01:30:33.690Z,101443.63
2022-11-30T01:33:05.063Z,101438.38
2022-11-30T01:35:32.288Z,101438.38
2022-11-30T01:37:59.524Z,101443.47
2022-11-30T01:40:27.200Z,101442.53
2022-11-30T01:42:54.485Z,101436.34
2022-11-30T01:45:21.884Z,101441.28
2022-11-30T01:47:54.121Z,101449.06
2022-11-30T01:50:32.540Z,101445.59
2022-11-30T01:53:00.141Z,101446.38
2022-11-30T01:55:32.888Z,101451.47
2022-11-30T01:58:11.667Z,101454.03
2022-11-30T02:00:43.017Z,101444.50
2022-11-30T02:03:56.443Z,101459.94
2022-11-30T02:06:25.043Z,101452.78
2022-11-30T02:08:53.697Z,101462.63
2022-11-30T02:11:21.539Z,101463.25
2022-11-30T02:14:12.492Z,101462.34
2022-11-30T02:16:54.076Z,101459.94
2022-11-30T02:19:55.653Z,101458.97
2022-11-30T02:23:00.031Z,101462.34
2022-11-30T02:25:58.269Z,101468.34
2022-11-30T02:28:50.964Z,101457.97
2022-11-30T02:31:24.355Z,101465.66
2022-11-30T02:33:53.116Z,101463.25
2022-11-30T02:36:21.381Z,101440.41
2022-11-30T02:38:49.202Z,101470.84
2022-11-30T02:41:16.466Z,101458.22
2022-11-30T02:43:44.445Z,101467.31
2022-11-30T02:46:28.037Z,101479.97
2022-11-30T02:49:07.511Z,101474.03
2022-11-30T02:51:37.800Z,101467.00
2022-11-30T02:54:05.156Z,101487.53
2022-11-30T02:56:33.480Z,101477.34
2022-11-30T02:59:00.839Z,101482.28
2022-11-30T03:01:28.198Z,101482.16
2022-11-30T03:03:55.375Z,101475.16
2022-11-30T03:06:22.666Z,101480.06
2022-11-30T03:08:49.845Z,101478.50
2022-11-30T03:11:17.052Z,101485.16
2022-11-30T03:13:44.255Z,101485.03
2022-11-30T03:16:13.257Z,101487.41
2022-11-30T03:18:41.356Z,101488.06
2022-11-30T03:21:10.663Z,101493.16
2022-11-30T03:23:39.280Z,101487.19
2022-11-30T03:26:08.424Z,101482.97
2022-11-30T03:28:37.315Z,101491.25
2022-11-30T03:31:05.085Z,101491.97
2022-11-30T03:33:32.400Z,101494.28
2022-11-30T03:36:05.428Z,101497.78
2022-11-30T03:38:32.574Z,101494.13
2022-11-30T03:41:05.784Z,101500.16
2022-11-30T03:43:33.304Z,101503.72
2022-11-30T03:46:01.246Z,101490.28
2022-11-30T03:48:28.621Z,101512.59
2022-11-30T03:50:55.899Z,101503.97
2022-11-30T03:53:24.722Z,101500.88
2022-11-30T03:55:54.352Z,101515.28
2022-11-30T03:58:22.209Z,101502.31
2022-11-30T04:00:50.059Z,101511.78
2022-11-30T04:03:17.288Z,101508.09
2022-11-30T04:05:44.768Z,101520.84
2022-11-30T04:08:11.853Z,101521.47
2022-11-30T04:10:39.205Z,101513.44
2022-11-30T04:13:06.313Z,101520.09
2022-11-30T04:15:33.505Z,101519.25
2022-11-30T04:18:00.819Z,101521.88
2022-11-30T04:20:27.976Z,101527.69
2022-11-30T04:22:57.895Z,101525.03
2022-11-30T04:25:25.783Z,101517.34
2022-11-30T04:27:52.910Z,101524.31
2022-11-30T04:30:20.214Z,101493.94
2022-11-30T04:32:47.472Z,101528.16
2022-11-30T04:35:14.969Z,101529.97
2022-11-30T04:37:42.291Z,101526.72
2022-11-30T04:40:09.953Z,101526.88
2022-11-30T04:42:37.193Z,101530.41
2022-11-30T04:45:04.669Z,101533.91
2022-11-30T04:47:32.029Z,101532.22
2022-11-30T04:49:59.239Z,101533.00
2022-11-30T04:52:26.490Z,101525.47
2022-11-30T04:54:53.915Z,101532.13
2022-11-30T04:57:21.158Z,101533.81
2022-11-30T04:59:48.333Z,101540.41
2022-11-30T05:02:15.431Z,101540.56
2022-11-30T05:04:42.653Z,101545.66
2022-11-30T05:07:10.089Z,101542.16
2022-11-30T05:09:37.283Z,101550.75
2022-11-30T05:12:04.565Z,101556.44
2022-11-30T05:14:31.781Z,101545.16
2022-11-30T05:16:59.051Z,101549.38
2022-11-30T05:19:26.172Z,101555.16
2022-11-30T05:21:53.482Z,101554.28
2022-11-30T05:24:20.632Z,101554.25
2022-11-30T05:26:47.862Z,101556.78
2022-11-30T05:29:15.084Z,101551.50
2022-11-30T05:31:42.434Z,101563.44
2022-11-30T05:34:09.805Z,101565.19
2022-11-30T05:36:37.164Z,101565.19
2022-11-30T05:39:04.717Z,101570.28
2022-11-30T05:41:31.778Z,101573.69
2022-11-30T05:43:59.062Z,101566.97
2022-11-30T05:46:26.543Z,101573.78
2022-11-30T05:48:53.918Z,101563.44
2022-11-30T05:51:21.642Z,101566.75
2022-11-30T05:53:49.242Z,101570.09
2022-11-30T05:56:19.697Z,101564.84
2022-11-30T05:58:47.765Z,101570.91
2022-11-30T06:01:23.509Z,101578.53
2022-11-30T06:03:51.461Z,101574.16
2022-11-30T06:06:19.300Z,101576.94
2022-11-30T06:08:48.017Z,101573.78
2022-11-30T06:11:16.112Z,101572.81
2022-11-30T06:13:43.669Z,101568.53
2022-11-30T06:16:10.901Z,101575.34
2022-11-30T06:18:38.664Z,101580.44
2022-11-30T06:21:08.550Z,101583.78
2022-11-30T06:23:36.149Z,101589.03
2022-11-30T06:26:07.748Z,101589.03
2022-11-30T06:28:36.012Z,101587.63
2022-11-30T06:31:05.922Z,101590.94
2022-11-30T06:33:34.454Z,101592.72
2022-11-30T06:36:02.172Z,101590.06
2022-11-30T06:38:29.719Z,101596.94
2022-11-30T06:41:05.080Z,101569.06
2022-11-30T06:43:39.927Z,101593.44
2022-11-30T06:46:07.623Z,101601.47
2022-11-30T06:48:36.200Z,101603.22
2022-11-30T06:51:07.875Z,101607.28
2022-11-30T06:53:35.717Z,101606.56
2022-11-30T06:56:10.687Z,101606.72
2022-11-30T06:58:40.090Z,101612.59
2022-11-30T07:01:09.672Z,101615.31
2022-11-30T07:03:37.440Z,101622.25
2022-11-30T07:06:14.827Z,101623.91
2022-11-30T07:08:43.260Z,101627.41
2022-11-30T07:11:11.740Z,101625.66
2022-11-30T07:13:39.223Z,101635.13
2022-11-30T07:16:08.312Z,101630.75
2022-11-30T07:18:35.720Z,101636.72
2022-11-30T07:21:05.080Z,101632.50
2022-11-30T07:23:55.849Z,101636.16
2022-11-30T07:26:24.445Z,101638.47
2022-11-30T07:28:58.798Z,101644.41
2022-11-30T07:31:29.188Z,101646.03
2022-11-30T07:33:57.929Z,101639.00
2022-11-30T07:36:27.100Z,101651.13
2022-11-30T07:38:54.301Z,101656.03
2022-11-30T07:41:22.291Z,101661.28
2022-11-30T07:43:49.515Z,101653.41
2022-11-30T07:46:17.933Z,101657.94
2022-11-30T07:48:45.999Z,101664.97
2022-11-30T07:51:19.875Z,101642.69
2022-11-30T07:53:47.974Z,101659.41
2022-11-30T07:56:18.235Z,101660.38
2022-11-30T07:58:47.107Z,101657.22
2022-11-30T08:01:17.748Z,101658.06
2022-11-30T08:03:45.272Z,101663.88
2022-11-30T08:06:16.361Z,101663.88
2022-11-30T08:08:45.174Z,101652.88
2022-11-30T08:11:15.119Z,101657.22
2022-11-30T08:13:42.879Z,101655.44
2022-11-30T08:16:13.004Z,101663.06
2022-11-30T08:18:40.920Z,101660.38
2022-11-30T08:21:10.353Z,101667.38
2022-11-30T08:23:40.242Z,101669.13
2022-11-30T08:26:11.953Z,101671.56
2022-11-30T08:28:39.993Z,101666.31
2022-11-30T08:31:13.860Z,101670.38
2022-11-30T08:33:41.172Z,101682.31
2022-11-30T08:36:13.057Z,101679.75
2022-11-30T08:38:41.778Z,101683.91
2022-11-30T08:41:10.887Z,101675.84
2022-11-30T08:43:38.485Z,101686.38
2022-11-30T08:49:12.974Z,101694.41
2022-11-30T08:54:30.763Z,101706.19
2022-11-30T08:56:59.391Z,101707.75
2022-11-30T08:59:27.102Z,101709.53
2022-11-30T09:01:54.363Z,101706.03
2022-11-30T09:04:21.775Z,101706.88
2022-11-30T09:06:49.104Z,101705.03
2022-11-30T09:09:16.391Z,101706.03
2022-11-30T09:11:43.681Z,101706.19
2022-11-30T09:14:11.155Z,101701.97
2022-11-30T09:16:38.550Z,101701.19
2022-11-30T09:19:06.017Z,101705.63
2022-11-30T09:21:33.511Z,101703.19
2022-11-30T09:24:00.860Z,101699.13
2022-11-30T09:26:28.540Z,101703.50
2022-11-30T09:28:56.167Z,101706.66
2022-11-30T09:31:26.007Z,101703.34
2022-11-30T09:33:56.407Z,101704.22
2022-11-30T09:36:27.628Z,101694.75
2022-11-30T09:38:57.427Z,101700.97
2022-11-30T09:41:49.818Z,101695.63
2022-11-30T09:44:43.238Z,101703.19
2022-11-30T09:47:32.269Z,101700.53
2022-11-30T09:50:30.307Z,101696.25
2022-11-30T09:53:16.229Z,101690.38
2022-11-30T09:55:45.356Z,101691.06
2022-11-30T09:58:28.138Z,101682.31
2022-11-30T10:00:55.859Z,101693.72
2022-11-30T10:03:24.286Z,101692.09
2022-11-30T10:06:11.224Z,101689.81
2022-11-30T10:08:51.046Z,101697.72
2022-11-30T10:11:46.846Z,101696.84
2022-11-30T10:14:32.724Z,101705.59
2022-11-30T10:17:20.174Z,101688.81
2022-11-30T10:20:25.550Z,101699.63
2022-11-30T10:23:09.782Z,101695.44
2022-11-30T10:25:57.457Z,101697.00
2022-11-30T10:28:51.841Z,101692.78
2022-11-30T10:31:32.308Z,101697.16
2022-11-30T10:34:13.903Z,101684.50
2022-11-30T10:36:44.954Z,101690.50
2022-11-30T10:39:22.859Z,101681.41
2022-11-30T10:42:16.409Z,101699.78
2022-11-30T10:44:59.617Z,101683.63
2022-11-30T10:47:37.060Z,101690.50
2022-11-30T10:50:06.470Z,101692.41
2022-11-30T10:52:46.547Z,101684.59
2022-11-30T10:55:21.621Z,101683.78
2022-11-30T10:57:54.405Z,101693.97
2022-11-30T11:00:22.134Z,101691.63
2022-11-30T11:02:50.554Z,101681.34
2022-11-30T11:05:20.169Z,101688.38
2022-11-30T11:07:50.280Z,101685.88
2022-11-30T11:10:31.475Z,101680.94
2022-11-30T11:12:59.339Z,101682.72
2022-11-30T11:15:29.049Z,101689.00
2022-11-30T11:18:23.142Z,101688.28
2022-11-30T11:21:06.295Z,101685.63
2022-11-30T11:23:40.054Z,101683.03
2022-11-30T11:26:17.398Z,101682.22
2022-11-30T11:28:47.296Z,101679.50
2022-11-30T11:31:33.998Z,101679.78
2022-11-30T11:34:01.767Z,101679.34
2022-11-30T11:36:34.373Z,101687.63
2022-11-30T11:39:01.771Z,101690.97
2022-11-30T11:41:39.168Z,101687.63
2022-11-30T11:44:09.405Z,101684.13
2022-11-30T11:46:52.460Z,101690.66
2022-11-30T11:49:23.994Z,101692.13
2022-11-30T11:52:03.400Z,101697.16
2022-11-30T11:54:42.635Z,101688.56
2022-11-30T11:57:13.561Z,101688.25
2022-11-30T12:00:02.547Z,101690.13
2022-11-30T12:03:05.108Z,101692.63
2022-11-30T12:05:50.443Z,101694.03
2022-11-30T12:08:29.232Z,101697.47
2022-11-30T12:11:12.611Z,101704.22
2022-11-30T12:13:42.476Z,101689.66
2022-11-30T12:16:12.505Z,101700.31
2022-11-30T12:18:59.518Z,101696.84
2022-11-30T12:21:38.181Z,101697.16
2022-11-30T12:24:23.336Z,101709.25
2022-11-30T12:27:27.859Z,101705.94
2022-11-30T12:30:39.013Z,101705.94
2022-11-30T12:33:33.377Z,101705.22
2022-11-30T12:36:14.748Z,101711.63
2022-11-30T12:38:59.171Z,101706.47
2022-11-30T12:41:48.992Z,101700.50
2022-11-30T12:44:41.930Z,101696.84
2022-11-30T12:47:18.015Z,101706.22
2022-11-30T12:50:02.231Z,101695.56
2022-11-30T12:52:32.115Z,101701.94
2022-11-30T12:55:24.134Z,101705.41
2022-11-30T12:58:06.063Z,101711.22
2022-11-30T13:01:06.943Z,101701.94
2022-11-30T13:03:50.682Z,101713.69
2022-11-30T13:06:23.649Z,101720.22
2022-11-30T13:09:13.648Z,101716.69
2022-11-30T13:11:43.711Z,101718.47
2022-11-30T13:14:20.694Z,101697.56
2022-11-30T13:16:51.142Z,101714.63
2022-11-30T13:19:26.435Z,101718.03
2022-11-30T13:22:03.048Z,101688.47
2022-11-30T13:24:37.923Z,101706.19
2022-11-30T13:27:23.055Z,101714.94
2022-11-30T13:29:59.825Z,101715.97
2022-11-30T13:32:56.753Z,101716.09
2022-11-30T13:35:29.331Z,101715.28
2022-11-30T13:38:36.434Z,101713.53
2022-11-30T13:41:07.896Z,101706.34
2022-11-30T13:43:40.738Z,101709.53
2022-11-30T13:46:22.539Z,101714.78
2022-11-30T13:48:50.587Z,101714.78
2022-11-30T13:51:39.450Z,101723.28
2022-11-30T13:54:41.587Z,101722.50
2022-11-30T13:57:19.906Z,101714.63
2022-11-30T13:59:55.641Z,101719.06
2022-11-30T14:02:36.868Z,101728.66
2022-11-30T14:05:19.647Z,101735.47
2022-11-30T14:07:53.595Z,101728.66
2022-11-30T14:10:32.674Z,101737.22
2022-11-30T14:13:03.039Z,101728.66
2022-11-30T14:15:50.598Z,101736.19
2022-11-30T14:18:22.326Z,101733.03
2022-11-30T14:21:01.266Z,101724.50
2022-11-30T14:23:31.938Z,101728.66
2022-11-30T14:26:10.838Z,101724.31
2022-11-30T14:28:50.751Z,101707.59
2022-11-30T14:31:24.659Z,101721.78
2022-11-30T14:33:56.627Z,101707.75
2022-11-30T14:36:28.946Z,101717.56
2022-11-30T14:38:56.846Z,101725.28
2022-11-30T14:41:30.107Z,101727.03
2022-11-30T14:44:13.356Z,101728.00
2022-11-30T14:46:41.519Z,101729.59
2022-11-30T14:49:25.136Z,101728.47
2022-11-30T14:51:58.277Z,101731.81
2022-11-30T14:54:43.920Z,101730.06
2022-11-30T14:57:42.432Z,101723.38
2022-11-30T15:00:18.526Z,101724.97
2022-11-30T15:02:46.430Z,101728.47
2022-11-30T15:05:17.747Z,101730.22
2022-11-30T15:07:46.318Z,101727.34
2022-11-30T15:10:29.385Z,101740.41
2022-11-30T15:13:00.827Z,101741.28
2022-11-30T15:15:31.572Z,101751.63
2022-11-30T15:18:14.506Z,101740.56
2022-11-30T15:20:44.648Z,101754.28
2022-11-30T15:23:15.719Z,101750.91
2022-11-30T15:25:49.159Z,101745.81
2022-11-30T15:28:34.248Z,101752.69
2022-11-30T15:31:07.767Z,101754.44
2022-11-30T15:33:42.800Z,101749.19
2022-11-30T15:36:32.566Z,101735.47
2022-11-30T15:38:58.555Z,101751.88
2022-11-30T15:41:26.716Z,101749.19
2022-11-30T15:43:57.187Z,101756.19
2022-11-30T15:46:33.660Z,101761.44
2022-11-30T15:49:17.621Z,101768.47
2022-11-30T15:51:59.048Z,101765.09
2022-11-30T15:54:46.336Z,101770.38
2022-11-30T15:57:15.346Z,101770.56
2022-11-30T15:59:44.328Z,101762.13
2022-11-30T16:02:32.883Z,101763.69
2022-11-30T16:05:23.769Z,101768.63
2022-11-30T16:08:03.948Z,101765.09
2022-11-30T16:10:40.378Z,101767.06
2022-11-30T16:13:07.821Z,101771.28
2022-11-30T16:15:36.756Z,101768.47
2022-11-30T16:18:20.616Z,101765.22
2022-11-30T16:20:59.581Z,101759.84
2022-11-30T16:23:28.428Z,101761.78
2022-11-30T16:25:56.054Z,101768.63
2022-11-30T16:28:23.670Z,101752.84
2022-11-30T16:30:51.931Z,101767.06
2022-11-30T16:33:22.243Z,101761.94
2022-11-30T16:35:57.022Z,101761.94
2022-11-30T16:38:25.493Z,101761.25
2022-11-30T16:40:56.511Z,101758.75
2022-11-30T16:43:25.988Z,101755.44
2022-11-30T16:45:53.411Z,101755.59
2022-11-30T16:48:20.762Z,101760.69
2022-11-30T16:50:48.021Z,101764.22
2022-11-30T16:53:15.839Z,101751.94
2022-11-30T16:55:43.511Z,101758.94
2022-11-30T16:58:10.889Z,101764.94
2022-11-30T17:00:40.383Z,101762.44
2022-11-30T17:03:32.263Z,101765.09
2022-11-30T17:05:59.393Z,101760.06
2022-11-30T17:08:26.698Z,101756.91
2022-11-30T17:10:55.187Z,101759.50
2022-11-30T17:13:22.586Z,101764.69
2022-11-30T17:15:50.165Z,101766.44
2022-11-30T17:18:17.446Z,101766.53
2022-11-30T17:20:44.821Z,101759.59
2022-11-30T17:23:12.174Z,101772.25
2022-11-30T17:25:39.700Z,101776.63
2022-11-30T17:28:06.894Z,101768.81
2022-11-30T17:30:34.209Z,101775.75
2022-11-30T17:33:01.511Z,101776.47
2022-11-30T17:35:28.710Z,101784.22
2022-11-30T17:37:56.044Z,101779.97
2022-11-30T17:40:23.470Z,101783.66
2022-11-30T17:42:50.696Z,101781.88
2022-11-30T17:45:18.003Z,101794.63
2022-11-30T17:47:45.340Z,101791.75
2022-11-30T17:50:14.128Z,101796.31
2022-11-30T17:52:41.380Z,101792.81
2022-11-30T17:55:09.079Z,101800.69
2022-11-30T17:57:37.978Z,101802.38
2022-11-30T18:00:06.581Z,101800.69
2022-11-30T18:02:33.996Z,101797.16
2022-11-30T18:05:01.298Z,101798.78
2022-11-30T18:07:28.628Z,101803.34
2022-11-30T18:09:56.607Z,101797.16
2022-11-30T18:12:23.772Z,101805.22
2022-11-30T18:14:51.247Z,101805.34
2022-11-30T18:17:18.487Z,101810.34
2022-11-30T18:19:45.784Z,101808.66
2022-11-30T18:22:13.010Z,101805.34
2022-11-30T18:24:40.555Z,101804.53
2022-11-30T18:27:07.860Z,101798.94
2022-11-30T18:29:35.183Z,101813.59
2022-11-30T18:32:02.412Z,101810.00
2022-11-30T18:34:29.768Z,101809.47
2022-11-30T18:36:57.032Z,101812.81
2022-11-30T18:39:24.238Z,101816.13
2022-11-30T18:41:51.444Z,101816.94
2022-11-30T18:44:18.825Z,101819.50
2022-11-30T18:46:46.042Z,101808.97
2022-11-30T18:49:13.314Z,101823.00
2022-11-30T18:51:40.704Z,101793.53
2022-11-30T18:54:10.278Z,101817.19
2022-11-30T18:56:38.966Z,101824.91
2022-11-30T18:59:09.374Z,101824.19
2022-11-30T19:01:37.088Z,101824.13
2022-11-30T19:04:08.137Z,101818.06
2022-11-30T19:06:37.058Z,101818.94
2022-11-30T19:09:08.943Z,101823.16
2022-11-30T19:11:37.768Z,101823.16
2022-11-30T19:14:05.865Z,101832.66
2022-11-30T19:16:35.045Z,101837.66
2022-11-30T19:19:05.200Z,101841.97
2022-11-30T19:21:33.356Z,101835.91
2022-11-30T19:24:00.916Z,101833.19
2022-11-30T19:26:28.778Z,101830.66
2022-11-30T19:28:57.570Z,101834.94
2022-11-30T19:31:26.263Z,101839.97
2022-11-30T19:33:55.616Z,101846.72
2022-11-30T19:36:26.172Z,101846.72
2022-11-30T19:38:54.228Z,101839.88
2022-11-30T19:41:22.209Z,101844.16
2022-11-30T19:44:02.764Z,101841.63
2022-11-30T19:46:32.235Z,101843.28
2022-11-30T19:49:01.804Z,101846.72
2022-11-30T19:51:30.713Z,101847.50
2022-11-30T19:54:01.642Z,101844.97
2022-11-30T19:56:34.769Z,101850.88
2022-11-30T19:59:05.718Z,101850.06
2022-11-30T20:01:34.637Z,101850.06
2022-11-30T20:04:03.097Z,101858.66
2022-11-30T20:06:36.087Z,101862.00
2022-11-30T20:09:05.827Z,101853.22
2022-11-30T20:11:33.465Z,101851.63
2022-11-30T20:14:01.883Z,101852.72
2022-11-30T20:16:29.621Z,101844.00
2022-11-30T20:19:01.160Z,101852.78
2022-11-30T20:21:31.484Z,101841.44
2022-11-30T20:24:01.001Z,101853.75
2022-11-30T20:26:34.480Z,101844.97
2022-11-30T20:29:03.752Z,101857.06
2022-11-30T20:31:33.593Z,101858.66
2022-11-30T20:34:01.370Z,101865.50
2022-11-30T20:36:28.852Z,101863.06
2022-11-30T20:38:56.519Z,101863.78
2022-11-30T20:41:25.667Z,101872.19
2022-11-30T20:43:53.717Z,101867.09
2022-11-30T20:46:36.028Z,101862.00
2022-11-30T20:49:12.943Z,101870.44
2022-11-30T20:51:41.447Z,101867.78
2022-11-30T20:54:09.454Z,101863.59
2022-11-30T20:56:38.435Z,101862.00
2022-11-30T20:59:17.822Z,101868.88
2022-11-30T21:01:47.781Z,101860.41
2022-11-30T21:04:15.660Z,101858.50
2022-11-30T21:06:45.914Z,101868.00
2022-11-30T21:09:17.908Z,101873.97
2022-11-30T21:11:45.882Z,101865.44
2022-11-30T21:14:13.753Z,101855.16
2022-11-30T21:16:41.525Z,101870.72
2022-11-30T21:19:10.976Z,101872.34
2022-11-30T21:21:38.209Z,101873.97
2022-11-30T21:24:08.094Z,101863.78
2022-11-30T21:26:38.161Z,101868.78
2022-11-30T21:29:10.052Z,101866.75
2022-11-30T21:31:37.454Z,101864.31
2022-11-30T21:34:05.107Z,101855.00
2022-11-30T21:36:32.615Z,101866.31
2022-11-30T21:39:06.745Z,101869.03
2022-11-30T21:41:38.613Z,101869.03
2022-11-30T21:44:07.763Z,101864.72
2022-11-30T21:46:35.255Z,101865.50
2022-11-30T21:49:03.120Z,101856.91
2022-11-30T21:51:32.065Z,101866.47
2022-11-30T21:54:01.778Z,101874.28
2022-11-30T21:56:34.071Z,101864.81
2022-11-30T21:59:01.859Z,101872.56
2022-11-30T22:01:32.021Z,101870.88
2022-11-30T22:04:00.995Z,101874.47
2022-11-30T22:06:30.451Z,101864.09
2022-11-30T22:09:03.341Z,101876.03
2022-11-30T22:11:31.443Z,101865.84
2022-11-30T22:13:58.991Z,101867.63
2022-11-30T22:16:33.978Z,101867.78
2022-11-30T22:19:03.455Z,101871.13
2022-11-30T22:21:31.994Z,101864.25
2022-11-30T22:24:02.170Z,101852.88
2022-11-30T22:26:33.904Z,101859.97
2022-11-30T22:29:04.705Z,101862.69
2022-11-30T22:31:36.147Z,101855.03
2022-11-30T22:34:04.112Z,101850.91
2022-11-30T22:36:33.334Z,101860.13
2022-11-30T22:39:04.117Z,101858.28
2022-11-30T22:41:31.908Z,101860.75
2022-11-30T22:43:59.835Z,101857.06
2022-11-30T22:46:32.788Z,101854.78
2022-11-30T22:49:02.784Z,101859.88
2022-11-30T22:51:32.380Z,101853.91
2022-11-30T22:54:00.460Z,101829.69
2022-11-30T22:56:41.650Z,101852.31
2022-11-30T22:59:11.914Z,101848.97
2022-11-30T23:01:41.813Z,101854.06
2022-11-30T23:04:12.091Z,101851.47
2022-11-30T23:06:41.487Z,101859.16
2022-11-30T23:09:14.375Z,101841.97
2022-11-30T23:11:42.449Z,101845.47
2022-11-30T23:14:12.737Z,101836.88
2022-11-30T23:16:41.251Z,101847.41
2022-11-30T23:19:09.375Z,101849.06
2022-11-30T23:21:41.745Z,101845.66
2022-11-30T23:24:17.213Z,101836.22
2022-11-30T23:26:44.459Z,101830.09
2022-11-30T23:29:13.959Z,101835.47
2022-11-30T23:31:44.144Z,101829.41
2022-11-30T23:34:15.133Z,101828.44
2022-11-30T23:36:42.793Z,101837.03
2022-11-30T23:39:13.299Z,101838.78
2022-11-30T23:41:41.296Z,101837.19
2022-11-30T23:44:09.281Z,101838.78
2022-11-30T23:46:36.489Z,101837.03
2022-11-30T23:49:04.377Z,101842.13
2022-11-30T23:51:31.504Z,101830.38
2022-11-30T23:53:58.642Z,101831.13
2022-11-30T23:56:25.902Z,101824.28
2022-11-30T23:58:53.364Z,101830.16
